Time;durP1;ratioP1;P1;durP2;ratioP2;P2;SDS_P1;SDS_P2;PMS_P1;PMS_P2;Temp;Humidity;BMP_temperature;BMP_pressure;BME280_temperature;BME280_humidity;BME280_pressure;Samples;Min_cycle;Max_cycle;Signal;HPM_P1;HPM_P2
2021/08/05 00:22:15;;;;;;;13.30;12.10;;;;;;;25.66;100.00;99913.50;1193288;23;21548;-75
2021/08/05 01:29:55;;;;;;;17.70;14.80;;;;;;;25.10;100.00;99894.34;1193505;23;21445;-75
2021/08/05 01:41:09;;;;;;;15.43;13.98;;;;;;;24.77;100.00;99892.94;1195317;23;21536;-76
2021/08/05 01:51:48;;;;;;;18.60;14.77;;;;;;;24.97;100.00;99882.56;1335561;23;21267;-74
2021/08/05 01:59:13;;;;;;;15.55;13.95;;;;;;;25.04;100.00;99881.06;3687756;23;23461;-74
2021/08/05 02:30:27;;;;;;;16.92;14.57;;;;;;;25.02;100.00;99881.19;3645135;23;20576;-73
2021/08/05 02:33:18;;;;;;;16.95;15.15;;;;;;;24.91;100.00;99876.94;3686368;23;20043;-73
2021/08/05 02:41:20;;;;;;;17.65;14.02;;;;;;;25.20;100.00;99881.31;3722225;23;20054;-72
2021/08/05 02:49:22;;;;;;;15.45;13.75;;;;;;;24.86;100.00;99886.94;3722894;23;20034;-72
2021/08/05 02:57:34;;;;;;;16.67;14.32;;;;;;;25.21;100.00;99885.56;3711633;23;20049;-74
2021/08/05 03:05:20;;;;;;;16.63;13.93;;;;;;;25.36;99.82;99878.97;3617707;23;20401;-72
2021/08/05 03:15:54;;;;;;;18.85;14.82;;;;;;;25.26;100.00;99883.38;3539819;40;20077;-75
2021/08/05 03:18:21;;;;;;;17.48;14.35;;;;;;;25.57;99.97;99883.06;3541168;40;20039;-73
2021/08/05 03:20:48;;;;;;;17.38;14.80;;;;;;;25.00;100.00;99874.50;3541094;40;20058;-71
2021/08/05 03:23:46;;;;;;;19.73;15.50;;;;;;;24.68;100.00;99877.31;3565802;23;20053;-71
2021/08/05 03:26:22;;;;;;;17.52;15.52;;;;;;;24.63;100.00;99888.09;3612411;23;20236;-74
2021/08/05 03:28:48;;;;;;;17.95;15.82;;;;;;;24.41;100.00;99892.69;3539406;40;20284;-71
2021/08/05 03:31:17;;;;;;;18.08;15.60;;;;;;;24.73;100.00;99888.16;3540116;40;20087;-72
2021/08/05 03:33:43;;;;;;;18.30;16.17;;;;;;;24.28;100.00;99889.50;3540319;40;20063;-73
2021/08/05 03:36:09;;;;;;;20.98;16.13;;;;;;;24.30;100.00;99892.81;3540327;40;20111;-71
2021/08/05 03:38:35;;;;;;;19.73;16.17;;;;;;;24.38;100.00;99885.16;3542101;40;20047;-74
2021/08/05 03:45:58;;;;;;;22.00;16.02;;;;;;;24.38;100.00;99899.00;3650303;23;20063;-72
2021/08/05 03:56:11;;;;;;;19.58;16.02;;;;;;;24.84;100.00;99901.84;3652850;23;20041;-73
2021/08/05 04:01:20;;;;;;;18.63;15.68;;;;;;;25.07;100.00;99905.03;3535524;40;20055;-71
2021/08/05 04:03:46;;;;;;;19.20;15.32;;;;;;;24.78;100.00;99912.00;3537428;40;20378;-70
2021/08/05 04:06:11;;;;;;;17.55;15.75;;;;;;;24.89;100.00;99904.06;3540287;40;20085;-71
2021/08/05 04:08:38;;;;;;;21.25;16.23;;;;;;;24.80;100.00;99899.66;3539324;40;20035;-74
2021/08/05 04:11:05;;;;;;;20.92;16.13;;;;;;;24.86;100.00;99899.94;3539841;40;20073;-73
2021/08/05 04:16:04;;;;;;;19.58;16.40;;;;;;;24.41;100.00;99897.88;3539706;40;20075;-70
2021/08/05 04:21:01;;;;;;;19.65;16.17;;;;;;;24.43;100.00;99898.59;3537070;40;20083;-69
2021/08/05 04:23:28;;;;;;;19.30;15.50;;;;;;;25.15;100.00;99892.16;3540204;40;20035;-69
2021/08/05 04:33:46;;;;;;;17.52;15.57;;;;;;;24.78;100.00;99888.59;1338082;23;20312;-71
2021/08/05 04:36:11;;;;;;;22.60;15.95;;;;;;;24.85;100.00;99895.69;3538776;40;20328;-71
2021/08/05 04:38:38;;;;;;;22.55;15.95;;;;;;;25.19;100.00;99880.50;3549162;40;20045;-72
2021/08/05 04:41:04;;;;;;;20.30;15.50;;;;;;;25.40;97.97;99886.41;3539939;40;20038;-72
2021/08/05 04:51:22;;;;;;;23.05;15.73;;;;;;;25.26;98.81;99883.38;3686751;23;20078;-72
2021/08/05 05:03:52;;;;;;;19.52;15.82;;;;;;;25.75;96.72;99870.97;3718000;23;20977;-73
2021/08/05 05:11:17;;;;;;;19.85;15.30;;;;;;;26.56;92.24;99877.22;1337578;23;20280;-72
2021/08/05 05:13:46;;;;;;;22.10;15.68;;;;;;;26.36;92.92;99888.72;3707466;23;20486;-72
2021/08/05 05:16:12;;;;;;;21.58;15.82;;;;;;;26.73;91.13;99884.28;3720230;23;20027;-75
2021/08/05 05:21:14;;;;;;;21.13;15.75;;;;;;;26.85;91.37;99872.66;3721401;23;20054;-75
2021/08/05 05:23:54;;;;;;;20.40;16.65;;;;;;;27.02;89.94;99877.03;3687862;23;20054;-72
2021/08/05 05:26:35;;;;;;;23.98;15.93;;;;;;;27.39;88.54;99869.84;3711014;23;20047;-69
2021/08/05 05:32:31;;;;;;;21.92;16.50;;;;;;;27.59;89.27;99862.66;3607175;23;20042;-71
2021/08/05 05:44:57;;;;;;;20.08;16.30;;;;;;;27.56;89.69;99851.69;1409107;23;20647;-73
2021/08/05 05:50:07;;;;;;;17.98;16.05;;;;;;;27.19;92.35;99850.13;1335222;23;20216;-70
2021/08/05 06:05:52;;;;;;;17.88;16.05;;;;;;;27.99;88.52;99846.41;1264730;23;20774;-72
2021/08/05 06:11:01;;;;;;;20.15;16.13;;;;;;;28.17;87.78;99847.09;3543291;40;20043;-72
2021/08/05 06:15:56;;;;;;;20.60;14.73;;;;;;;29.03;83.46;99843.22;3543191;40;20107;-71
2021/08/05 06:18:22;;;;;;;21.92;15.95;;;;;;;28.41;84.42;99841.97;3543943;40;20576;-73
2021/08/05 06:20:49;;;;;;;19.98;15.40;;;;;;;28.76;83.87;99839.09;3544416;40;20446;-72
2021/08/05 06:23:16;;;;;;;18.10;14.38;;;;;;;28.56;83.63;99832.56;3543603;40;20035;-72
2021/08/05 06:28:11;;;;;;;18.60;14.77;;;;;;;28.46;84.42;99828.41;3542723;40;20039;-71
2021/08/05 06:30:38;;;;;;;19.98;15.20;;;;;;;28.76;82.19;99825.22;3543429;40;20028;-73
2021/08/05 06:33:06;;;;;;;17.13;14.70;;;;;;;29.09;79.91;99824.22;3543654;40;20031;-72
2021/08/05 06:35:32;;;;;;;16.67;14.15;;;;;;;29.28;80.31;99823.91;3543580;40;20038;-71
2021/08/05 06:40:27;;;;;;;15.20;12.98;;;;;;;29.87;75.84;99825.28;3542495;40;20066;-74
2021/08/05 06:42:53;;;;;;;13.88;12.50;;;;;;;29.09;77.30;99829.47;3543535;40;20039;-72
2021/08/05 06:45:24;;;;;;;15.00;12.85;;;;;;;30.10;73.53;99831.41;3543508;40;20046;-73
2021/08/05 06:53:12;;;;;;;14.73;11.10;;;;;;;30.02;70.17;99815.69;3582279;23;20049;-73
2021/08/05 07:06:43;;;;;;;16.65;11.10;;;;;;;30.32;65.69;99822.78;3541059;40;20049;-72
2021/08/05 07:09:09;;;;;;;13.45;10.50;;;;;;;30.76;63.79;99812.50;3541314;40;20089;-72
2021/08/05 07:11:36;;;;;;;11.50;9.95;;;;;;;30.43;63.45;99819.75;3542587;40;20039;-72
2021/08/05 07:14:03;;;;;;;15.10;10.88;;;;;;;30.32;65.69;99809.66;3542751;40;20050;-72
2021/08/05 07:16:31;;;;;;;13.02;10.98;;;;;;;31.27;64.56;99808.28;3542610;40;20088;-73
2021/08/05 07:18:57;;;;;;;12.63;11.10;;;;;;;31.02;63.82;99812.94;3542335;40;20031;-73
2021/08/05 07:23:52;;;;;;;13.88;12.32;;;;;;;31.29;62.53;99799.22;3542246;40;20194;-72
2021/08/05 07:26:20;;;;;;;15.07;11.90;;;;;;;31.53;62.23;99798.19;3542694;40;20030;-73
2021/08/05 07:28:47;;;;;;;20.85;16.85;;;;;;;31.34;62.39;99790.78;3543252;40;20031;-74
2021/08/05 07:31:12;;;;;;;21.08;15.05;;;;;;;32.19;61.52;99794.59;3542953;40;20099;-72
2021/08/05 07:36:16;;;;;;;19.45;13.07;;;;;;;31.39;61.74;99791.94;3542490;40;20039;-73
2021/08/05 07:52:42;;;;;;;19.98;14.30;;;;;;;31.38;61.47;99771.06;3538747;40;20099;-79
2021/08/05 07:55:11;;;;;;;22.58;15.18;;;;;;;31.65;61.89;99773.06;3540310;40;20082;-72
2021/08/05 07:57:38;;;;;;;20.15;14.63;;;;;;;32.91;57.99;99769.75;3542923;40;20046;-71
2021/08/05 08:00:06;;;;;;;19.58;15.55;;;;;;;32.66;57.33;99767.72;3542852;40;20047;-70
2021/08/05 08:02:35;;;;;;;21.73;17.55;;;;;;;31.92;59.58;99763.69;3542224;40;20024;-72
2021/08/05 08:07:36;;;;;;;28.98;25.73;;;;;;;32.67;56.80;99761.44;3547034;40;20087;-72
2021/08/05 08:10:02;;;;;;;31.85;25.80;;;;;;;32.72;58.01;99759.06;3532023;40;20024;-75
2021/08/05 08:12:28;;;;;;;29.75;25.98;;;;;;;33.01;56.13;99756.28;3532198;40;20046;-71
2021/08/05 08:14:54;;;;;;;18.77;15.80;;;;;;;32.84;56.34;99762.81;3532272;40;20366;-72
2021/08/05 08:17:21;;;;;;;21.80;16.20;;;;;;;32.98;56.06;99756.66;3532131;40;20036;-73
2021/08/05 08:19:47;;;;;;;21.88;16.20;;;;;;;33.53;54.96;99750.53;3532352;40;20036;-72
2021/08/05 08:24:43;;;;;;;19.27;15.68;;;;;;;32.91;56.97;99737.31;3551679;40;20043;-71
2021/08/05 08:32:16;;;;;;;22.00;15.93;;;;;;;33.86;53.19;99738.28;3541920;40;20049;-73
2021/08/05 08:37:11;;;;;;;22.30;14.80;;;;;;;33.44;53.55;99734.00;3541633;40;20054;-74
2021/08/05 08:39:38;;;;;;;19.42;14.93;;;;;;;32.93;55.09;99727.41;3533274;40;20060;-75
2021/08/05 08:47:06;;;;;;;16.80;14.00;;;;;;;34.61;52.26;99708.97;3542031;40;20075;-73
2021/08/05 08:49:33;;;;;;;14.85;13.38;;;;;;;34.99;50.14;99711.81;3542570;40;20330;-72
2021/08/05 08:54:55;;;;;;;16.98;12.80;;;;;;;34.59;50.56;99706.53;3651147;23;20290;-72
2021/08/05 08:57:26;;;;;;;16.17;12.25;;;;;;;35.15;48.50;99690.22;3542220;40;20027;-73
2021/08/05 08:59:53;;;;;;;20.48;12.57;;;;;;;34.45;50.07;99702.25;3542788;40;20095;-72
2021/08/05 09:04:49;;;;;;;15.23;12.43;;;;;;;35.38;47.89;99701.16;3541371;40;20416;-74
2021/08/05 09:07:14;;;;;;;15.63;12.85;;;;;;;35.31;48.29;99703.00;3542113;40;20046;-73
2021/08/05 09:09:40;;;;;;;13.98;12.57;;;;;;;35.19;48.15;99696.72;3542042;40;20035;-76
2021/08/05 09:12:13;;;;;;;16.30;12.05;;;;;;;35.34;47.67;99700.72;3541692;40;20042;-72
2021/08/05 09:14:49;;;;;;;14.88;12.48;;;;;;;34.99;49.20;99686.19;3532971;40;20024;-75
2021/08/05 09:17:16;;;;;;;15.48;12.20;;;;;;;35.50;48.15;99680.94;3543572;40;20055;-73
2021/08/05 09:19:42;;;;;;;14.75;12.45;;;;;;;34.98;48.89;99678.47;3543385;40;20039;-72
2021/08/05 09:22:09;;;;;;;16.63;11.98;;;;;;;35.70;47.22;99676.38;3543394;40;20051;-73
2021/08/05 09:24:36;;;;;;;14.40;11.20;;;;;;;35.60;46.75;99684.78;3543288;40;20063;-72
2021/08/05 09:27:06;;;;;;;16.63;12.45;;;;;;;35.66;46.52;99677.81;3543455;40;20031;-75
2021/08/05 09:29:44;;;;;;;14.45;12.15;;;;;;;35.08;47.48;99670.94;3543523;40;20531;-72
2021/08/05 09:32:24;;;;;;;15.75;12.45;;;;;;;35.40;46.79;99670.78;3543595;40;20028;-72
2021/08/05 09:34:50;;;;;;;13.93;12.45;;;;;;;35.45;45.57;99660.44;3542093;40;20039;-71
2021/08/05 09:37:15;;;;;;;16.75;12.18;;;;;;;35.10;46.74;99656.44;3542408;40;20044;-71
2021/08/05 09:39:45;;;;;;;18.50;12.10;;;;;;;36.53;43.31;99657.47;3542390;40;20039;-72
2021/08/05 09:42:16;;;;;;;16.10;11.47;;;;;;;36.13;44.01;99644.78;3542237;40;20076;-73
2021/08/05 09:44:44;;;;;;;;;;;;;;;36.43;44.85;99643.91;3542220;40;20034;-72
2021/08/05 09:47:13;;;;;;;16.48;12.45;;;;;;;36.42;45.13;99647.59;3532915;40;19943;-74
2021/08/05 09:49:49;;;;;;;16.05;12.07;;;;;;;35.85;44.98;99639.84;3542001;40;20038;-70
2021/08/05 09:52:27;;;;;;;13.20;11.65;;;;;;;36.24;42.58;99642.22;3540982;40;20394;-71
2021/08/05 09:54:57;;;;;;;14.73;11.60;;;;;;;37.02;42.17;99639.88;3540063;40;20422;-72
2021/08/05 09:57:35;;;;;;;13.45;12.07;;;;;;;35.66;43.15;99630.19;3540242;40;20095;-73
2021/08/05 10:00:13;;;;;;;16.20;11.13;;;;;;;36.63;41.95;99621.72;3540689;40;20067;-71
2021/08/05 10:02:47;;;;;;;16.35;11.43;;;;;;;36.71;41.04;99634.66;3540097;40;20043;-71
2021/08/05 10:05:17;;;;;;;15.63;11.10;;;;;;;36.99;40.57;99629.69;3531099;40;20040;-72
2021/08/05 10:07:49;;;;;;;16.08;10.38;;;;;;;37.23;40.35;99626.16;3530563;40;20118;-71
2021/08/05 10:10:16;;;;;;;15.65;10.27;;;;;;;36.94;40.59;99621.63;3530423;40;20454;-73
2021/08/05 10:12:52;;;;;;;15.38;9.98;;;;;;;36.32;40.02;99614.63;3530811;40;20042;-72
2021/08/05 10:15:20;;;;;;;13.45;9.82;;;;;;;37.36;39.86;99613.53;3530458;40;20076;-73
2021/08/05 10:17:50;;;;;;;18.90;10.70;;;;;;;36.53;40.52;99603.66;3521022;40;20042;-70
2021/08/05 10:20:15;;;;;;;18.10;10.35;;;;;;;36.86;40.08;99600.69;3530553;40;20039;-72
2021/08/05 10:22:42;;;;;;;13.80;9.63;;;;;;;37.63;39.34;99597.25;3521837;40;20639;-72
2021/08/05 10:25:11;;;;;;;13.30;10.70;;;;;;;38.03;39.45;99592.97;3529514;40;20354;-70
2021/08/05 10:27:38;;;;;;;12.80;10.13;;;;;;;38.02;38.27;99583.38;3529835;40;20039;-71
2021/08/05 10:30:10;;;;;;;16.23;10.10;;;;;;;37.82;37.89;99574.91;3521042;40;20044;-71
2021/08/05 10:40:58;;;;;;;;;;;;;;;37.36;38.55;99565.78;3550693;40;20496;-71
2021/08/05 10:43:23;;;;;;;15.77;9.70;;;;;;;37.93;38.53;99548.38;3550191;40;19938;-71
2021/08/05 10:45:49;;;;;;;20.48;10.23;;;;;;;37.60;38.95;99549.94;3550536;40;20244;-72
2021/08/05 10:48:15;;;;;;;12.80;8.57;;;;;;;38.01;37.40;99536.59;3551341;40;20402;-69
2021/08/05 10:50:45;;;;;;;15.57;8.43;;;;;;;37.45;38.21;99539.72;3550408;40;20039;-72
2021/08/05 10:53:30;;;;;;;18.33;9.48;;;;;;;37.92;38.51;99533.47;3541200;40;20449;-73
2021/08/05 10:56:18;;;;;;;16.25;8.80;;;;;;;38.07;38.11;99525.06;3550797;40;20027;-72
2021/08/05 10:59:13;;;;;;;18.55;9.32;;;;;;;37.98;38.25;99526.44;3540020;40;20374;-71
2021/08/05 11:01:48;;;;;;;15.48;8.80;;;;;;;37.85;37.90;99514.19;3551360;40;20031;-72
2021/08/05 11:04:32;;;;;;;13.32;9.02;;;;;;;38.54;37.29;99512.53;3550372;40;20041;-74
2021/08/05 11:07:24;;;;;;;17.45;9.50;;;;;;;38.47;36.50;99502.00;3549666;40;20035;-73
2021/08/05 11:10:14;;;;;;;15.65;9.40;;;;;;;38.71;36.71;99495.63;3549834;40;20111;-74
2021/08/05 11:12:44;;;;;;;18.63;9.77;;;;;;;38.74;37.14;99491.69;3550007;40;20035;-71
2021/08/05 11:15:23;;;;;;;19.60;10.10;;;;;;;38.20;36.74;99487.59;3549759;40;20054;-72
2021/08/05 11:20:34;;;;;;;19.58;9.25;;;;;;;38.57;36.03;99472.97;3549487;40;20046;-72
2021/08/05 11:23:00;;;;;;;20.10;9.80;;;;;;;40.01;34.43;99474.19;3549610;40;20048;-72
2021/08/05 11:25:46;;;;;;;13.32;9.00;;;;;;;38.24;36.13;99464.88;3549288;40;20039;-71
2021/08/05 11:28:24;;;;;;;17.77;8.73;;;;;;;38.90;35.68;99467.81;3549668;40;20047;-74
2021/08/05 11:30:59;;;;;;;19.20;9.48;;;;;;;38.54;36.57;99462.00;3549510;40;20131;-73
2021/08/05 11:33:40;;;;;;;16.15;8.68;;;;;;;38.54;35.97;99444.22;3549584;40;20039;-72
2021/08/05 11:36:16;;;;;;;19.90;8.73;;;;;;;38.43;35.56;99439.72;3549656;40;20049;-73
2021/08/05 11:38:58;;;;;;;17.17;9.30;;;;;;;39.63;34.40;99430.47;3549072;40;20078;-73
2021/08/05 11:41:52;;;;;;;18.40;8.95;;;;;;;39.55;34.24;99438.06;3539331;40;20426;-71
2021/08/05 11:44:56;;;;;;;20.48;9.43;;;;;;;38.51;35.60;99423.41;3539939;40;20039;-73
2021/08/05 11:47:28;;;;;;;19.13;8.90;;;;;;;39.82;33.74;99423.00;3528910;40;20380;-74
2021/08/05 11:50:04;;;;;;;17.38;8.75;;;;;;;39.21;33.72;99417.78;3520158;40;20272;-72
2021/08/05 11:52:35;;;;;;;15.43;8.55;;;;;;;39.80;33.58;99422.44;3528631;40;20032;-73
2021/08/05 11:55:04;;;;;;;14.43;7.90;;;;;;;40.21;31.63;99411.28;3529170;40;20043;-71
2021/08/05 11:57:53;;;;;;;15.95;8.02;;;;;;;39.57;32.55;99398.66;3519214;40;20044;-73
2021/08/05 12:00:21;;;;;;;16.13;8.27;;;;;;;39.90;31.42;99387.94;3527967;40;20443;-72
2021/08/05 12:02:52;;;;;;;14.05;7.72;;;;;;;39.31;31.52;99391.31;3527770;40;20109;-72
2021/08/05 12:05:20;;;;;;;15.75;7.50;;;;;;;39.88;30.96;99390.03;3528885;40;20044;-71
2021/08/05 12:07:50;;;;;;;13.18;7.53;;;;;;;39.94;30.35;99381.06;3528331;40;20442;-71
2021/08/05 12:10:17;;;;;;;;;;;;;;;39.49;30.46;99383.06;3529341;40;20112;-72
2021/08/05 12:13:07;;;;;;;13.90;6.82;;;;;;;39.73;30.17;99373.84;3528731;40;19962;-72
2021/08/05 12:15:38;;;;;;;17.55;7.38;;;;;;;39.79;30.77;99371.03;3499972;41;20733;-71
2021/08/05 12:18:11;;;;;;;19.10;7.32;;;;;;;39.31;29.89;99362.84;3499851;41;20029;-71
2021/08/05 12:20:36;;;;;;;17.70;6.88;;;;;;;40.19;28.21;99367.25;3499773;41;20029;-72
2021/08/05 12:23:14;;;;;;;19.88;7.28;;;;;;;40.06;27.51;99355.13;3499525;41;20037;-72
2021/08/05 12:34:19;;;;;;;19.50;6.65;;;;;;;40.31;27.20;99336.72;3540530;40;20050;-71
2021/08/05 12:36:47;;;;;;;18.40;6.50;;;;;;;40.66;27.20;99338.97;3547476;40;20055;-73
2021/08/05 12:39:12;;;;;;;11.65;6.45;;;;;;;40.67;27.53;99329.09;3556486;40;20035;-72
2021/08/05 12:41:50;;;;;;;16.17;7.00;;;;;;;40.13;28.36;99333.59;3557017;40;20046;-71
2021/08/05 12:44:18;;;;;;;16.60;6.60;;;;;;;39.59;27.32;99319.34;3551192;40;20045;-72
2021/08/05 12:46:47;;;;;;;17.95;6.90;;;;;;;39.86;26.83;99320.19;3549848;40;20072;-70
2021/08/05 12:49:14;;;;;;;12.88;6.18;;;;;;;39.78;27.99;99317.97;3547944;40;20039;-69
2021/08/05 12:51:40;;;;;;;16.85;6.75;;;;;;;40.37;27.88;99308.28;3549949;40;20086;-72
2021/08/05 12:54:19;;;;;;;15.40;6.38;;;;;;;40.06;27.85;99296.47;3550354;40;20035;-71
2021/08/05 12:56:47;;;;;;;18.65;6.88;;;;;;;40.31;27.80;99302.06;3550664;40;20035;-72
2021/08/05 12:59:14;;;;;;;19.52;6.80;;;;;;;40.08;27.53;99299.69;3541941;40;20039;-72
2021/08/05 13:01:41;;;;;;;14.48;6.55;;;;;;;39.77;27.27;99293.22;3551096;40;20043;-71
2021/08/05 13:04:26;;;;;;;14.68;6.70;;;;;;;39.48;28.22;99283.75;3550207;40;20035;-71
2021/08/05 13:06:55;;;;;;;21.55;6.78;;;;;;;39.72;27.46;99289.66;3544062;40;20035;-72
2021/08/05 13:09:25;;;;;;;17.25;6.82;;;;;;;39.51;27.79;99283.25;3550633;40;20049;-69
2021/08/05 13:11:54;;;;;;;18.38;7.53;;;;;;;39.97;27.96;99294.50;3551161;40;20042;-72
2021/08/05 13:14:35;;;;;;;22.67;6.88;;;;;;;39.62;26.76;99294.84;3550308;40;20039;-72
2021/08/05 13:17:19;;;;;;;20.65;7.07;;;;;;;39.92;26.43;99291.78;3550920;40;20034;-73
2021/08/05 13:20:04;;;;;;;19.77;6.18;;;;;;;39.66;26.00;99277.31;3549979;40;20035;-72
2021/08/05 13:22:42;;;;;;;15.32;6.53;;;;;;;39.95;27.33;99273.44;3549587;40;20058;-72
2021/08/05 13:25:12;;;;;;;15.75;7.13;;;;;;;39.76;27.46;99275.59;3548565;40;20045;-72
2021/08/05 13:27:39;;;;;;;15.80;7.00;;;;;;;40.11;26.65;99261.09;3550280;40;20042;-74
2021/08/05 13:30:19;;;;;;;14.30;6.75;;;;;;;40.00;27.01;99257.50;3549711;40;20039;-71
2021/08/05 13:32:52;;;;;;;21.88;7.72;;;;;;;39.65;27.82;99255.25;3549481;40;20389;-72
2021/08/05 13:35:21;;;;;;;15.57;6.75;;;;;;;40.52;26.45;99252.41;3547630;40;20051;-71
2021/08/05 13:38:04;;;;;;;19.15;7.05;;;;;;;40.39;27.53;99242.97;3549233;40;20126;-71
2021/08/05 13:40:32;;;;;;;17.73;6.93;;;;;;;40.00;27.67;99230.03;3549822;40;20102;-73
2021/08/05 13:43:01;;;;;;;15.52;6.70;;;;;;;40.27;26.92;99222.84;3550036;40;20031;-71
2021/08/05 13:45:27;;;;;;;23.17;6.93;;;;;;;40.05;27.24;99222.94;3549901;40;20402;-72
2021/08/05 13:47:52;;;;;;;20.95;6.80;;;;;;;40.14;27.26;99213.41;3550076;40;20035;-72
2021/08/05 13:50:26;;;;;;;19.98;6.93;;;;;;;40.72;27.15;99204.56;3549848;40;20045;-72
2021/08/05 13:52:54;;;;;;;17.10;7.00;;;;;;;40.77;26.88;99203.78;3540321;40;20095;-72
2021/08/05 13:55:22;;;;;;;18.77;6.97;;;;;;;40.23;28.60;99195.09;3550041;40;20045;-72
2021/08/05 13:57:48;;;;;;;19.35;6.82;;;;;;;40.43;27.43;99187.28;3550219;40;20035;-73
2021/08/05 14:00:15;;;;;;;16.70;6.90;;;;;;;40.57;26.86;99183.09;3549898;40;20509;-71
2021/08/05 14:02:44;;;;;;;28.33;7.38;;;;;;;40.74;27.94;99181.09;3550518;40;20376;-72
2021/08/05 14:05:11;;;;;;;17.00;7.30;;;;;;;39.87;27.60;99172.63;3540396;40;20412;-72
2021/08/05 14:07:39;;;;;;;24.17;7.50;;;;;;;39.99;27.86;99172.50;3547421;40;20043;-68
2021/08/05 14:10:06;;;;;;;21.88;6.93;;;;;;;39.83;27.74;99166.19;3542217;40;20033;-72
2021/08/05 14:27:35;;;;;;;12.75;6.03;;;;;;;40.25;27.19;99161.00;1195534;23;20277;-74
2021/08/05 14:38:20;;;;;;;14.10;6.25;;;;;;;39.96;26.05;99133.00;1335996;23;20204;-76
2021/08/05 14:49:21;;;;;;;14.45;5.63;;;;;;;39.69;25.39;99122.38;3652288;23;20995;-75
2021/08/05 15:16:13;;;;;;;12.13;5.72;;;;;;;39.37;25.30;99082.34;1411463;23;21546;-79
2021/08/05 15:53:07;;;;;;;17.08;6.40;;;;;;;38.29;26.56;99054.91;4945428;23;20187;-71
2021/08/05 16:03:08;;;;;;;19.33;6.03;;;;;;;37.69;27.16;99039.56;1412680;23;21453;-73
2021/08/05 16:16:52;;;;;;;17.27;6.22;;;;;;;37.15;29.13;99024.25;3235184;41;10000378;-69
2021/08/05 16:19:18;;;;;;;14.35;6.13;;;;;;;37.07;29.10;99032.59;3469187;41;20062;-72
2021/08/05 16:21:48;;;;;;;15.98;6.35;;;;;;;36.86;29.39;99026.09;3458096;41;20095;-72
2021/08/05 16:24:15;;;;;;;17.98;6.00;;;;;;;36.83;29.89;99037.13;3472484;41;20116;-72
2021/08/05 16:29:10;;;;;;;17.33;6.05;;;;;;;36.62;29.23;99023.69;3468812;41;20394;-72
2021/08/05 16:31:35;;;;;;;15.00;5.32;;;;;;;36.53;30.01;99021.41;3470040;41;20046;-71
2021/08/05 16:34:04;;;;;;;15.90;6.20;;;;;;;36.53;29.54;99016.13;3473155;41;20110;-70
2021/08/05 16:44:00;;;;;;;13.52;5.70;;;;;;;36.30;30.24;99016.13;3470914;41;20484;-72
2021/08/05 16:46:27;;;;;;;15.15;6.22;;;;;;;36.18;30.55;99012.69;3479600;41;20709;-73
2021/08/05 16:48:53;;;;;;;10.18;5.47;;;;;;;36.02;31.32;99015.19;3477527;41;20075;-70
2021/08/05 16:51:24;;;;;;;13.75;5.90;;;;;;;36.01;30.63;99010.97;3475674;41;20421;-71
2021/08/05 16:53:50;;;;;;;14.70;6.22;;;;;;;35.85;31.41;99012.41;3476576;41;20046;-73
2021/08/05 16:56:16;;;;;;;13.23;6.40;;;;;;;35.85;30.56;99009.78;3479714;41;20448;-71
2021/08/05 17:01:13;;;;;;;14.20;5.97;;;;;;;35.74;31.15;99011.34;3476171;41;20045;-72
2021/08/05 17:06:10;;;;;;;18.88;6.35;;;;;;;35.60;31.35;99003.84;3466283;41;20079;-73
2021/08/05 17:08:37;;;;;;;14.15;6.47;;;;;;;35.58;31.03;99003.28;3468972;41;20042;-70
2021/08/05 17:11:03;;;;;;;16.48;6.20;;;;;;;35.51;31.99;98998.09;3467071;41;20054;-71
2021/08/05 17:13:29;;;;;;;13.75;6.10;;;;;;;35.38;31.62;98998.25;3465446;41;20107;-72
2021/08/05 17:15:55;;;;;;;18.30;6.20;;;;;;;35.36;31.73;98997.66;3463521;41;20050;-70
2021/08/05 17:20:50;;;;;;;15.35;6.50;;;;;;;35.29;31.93;98996.16;3478748;41;20197;-73
2021/08/05 17:23:15;;;;;;;11.25;5.93;;;;;;;35.05;32.62;98995.28;3482357;40;20528;-73
2021/08/05 17:25:42;;;;;;;15.95;5.75;;;;;;;35.12;31.81;99003.91;3477013;41;20048;-69
2021/08/05 17:28:07;;;;;;;15.45;6.45;;;;;;;35.00;31.96;98999.63;3476885;41;20243;-73
2021/08/05 17:33:02;;;;;;;13.65;5.85;;;;;;;34.56;32.53;98992.81;3476981;41;20045;-73
2021/08/05 17:35:28;;;;;;;13.27;5.93;;;;;;;34.64;31.85;98988.06;3476437;41;20410;-71
2021/08/05 17:37:55;;;;;;;16.83;6.65;;;;;;;34.65;32.26;99002.88;3479909;41;20430;-73
2021/08/05 17:42:50;;;;;;;14.45;6.15;;;;;;;34.50;32.40;99013.00;3548509;23;20054;-73
2021/08/05 17:45:27;;;;;;;14.40;6.67;;;;;;;34.57;32.21;99015.56;1168992;23;20195;-73
2021/08/05 17:48:03;;;;;;;16.85;7.07;;;;;;;34.25;32.96;99011.41;3587743;23;20062;-73
2021/08/05 17:57:57;;;;;;;14.23;5.88;;;;;;;33.93;33.10;99013.31;3481682;41;20546;-72
2021/08/05 18:10:48;;;;;;;14.65;6.00;;;;;;;33.72;33.35;99018.94;1305827;23;20230;-75
2021/08/05 18:16:18;;;;;;;12.50;6.28;;;;;;;33.57;33.91;99019.28;3483061;41;20112;-76
2021/08/05 18:18:44;;;;;;;13.15;6.55;;;;;;;33.49;33.54;99011.63;3473630;41;20026;-73
2021/08/05 18:21:10;;;;;;;21.50;7.20;;;;;;;33.55;33.25;99017.88;3471814;41;20042;-71
2021/08/05 18:23:36;;;;;;;20.63;7.00;;;;;;;33.57;33.61;99016.63;3482329;41;20232;-72
2021/08/05 18:26:03;;;;;;;16.92;6.28;;;;;;;33.12;34.51;99015.84;3482702;41;20038;-72
2021/08/05 18:28:29;;;;;;;17.13;7.22;;;;;;;32.96;36.74;99013.69;3474776;41;20437;-71
2021/08/05 18:36:01;;;;;;;18.40;6.40;;;;;;;33.02;34.12;99010.22;1173806;23;20281;-79
2021/08/05 18:38:37;;;;;;;12.32;5.93;;;;;;;32.88;34.43;99013.13;1301859;23;20209;-75
2021/08/05 18:41:06;;;;;;;13.63;6.22;;;;;;;32.65;36.02;99018.03;1257735;23;20346;-72
2021/08/05 18:43:32;;;;;;;13.73;6.70;;;;;;;32.58;36.16;99012.00;3638110;23;20048;-79
2021/08/05 18:52:23;;;;;;;11.82;6.38;;;;;;;32.22;36.64;99008.00;1508311;23;21659;-73
2021/08/05 19:02:51;;;;;;;19.42;8.43;;;;;;;31.82;38.02;99006.38;1305765;23;20273;-73
2021/08/05 19:11:37;;;;;;;15.88;6.13;;;;;;;31.83;36.25;99010.66;3591712;23;20048;-75
2021/08/05 19:16:36;;;;;;;13.73;5.97;;;;;;;31.67;37.17;99003.16;1376932;23;20659;-78
2021/08/05 19:19:33;;;;;;;16.70;6.40;;;;;;;31.75;36.57;99002.97;3622858;23;20448;-71
2021/08/05 19:21:58;;;;;;;18.35;5.60;;;;;;;31.44;37.21;99000.06;1748262;23;20146;-74
2021/08/05 19:30:14;;;;;;;13.48;6.25;;;;;;;31.41;38.02;99006.56;3624076;23;21038;-74
2021/08/05 19:32:40;;;;;;;17.73;5.95;;;;;;;31.10;37.83;99011.50;1448330;23;20191;-74
2021/08/05 19:55:13;;;;;;;16.98;6.60;;;;;;;30.86;40.77;98998.91;1170835;23;20286;-74
2021/08/05 20:23:38;;;;;;;14.40;6.50;;;;;;;30.07;53.07;98997.56;1169169;23;20250;-73
2021/08/05 20:48:27;;;;;;;16.80;7.93;;;;;;;29.49;63.87;98988.22;1169939;23;21499;-74
2021/08/05 21:03:43;;;;;;;12.48;7.78;;;;;;;29.24;63.70;98988.78;1171823;23;21517;-74
2021/08/05 21:45:53;;;;;;;17.75;7.60;;;;;;;28.45;60.77;98963.38;1169063;23;21479;-74
2021/08/05 22:13:11;;;;;;;17.08;7.70;;;;;;;27.73;65.16;98946.63;1172051;23;21526;-74
2021/08/05 22:23:50;;;;;;;16.30;8.00;;;;;;;27.44;65.63;98940.34;1168767;23;21599;-74
2021/08/05 22:58:36;;;;;;;17.60;7.90;;;;;;;27.03;64.04;98910.25;1169416;23;21535;-75
